Flight Track Log - Related Links

Times and Time Zones

All times are in EDT time to prevent confusion due to time zone crossing. See the N378TT flight status page for this flight to view local times or setup timezone preferences in your user account.

Time Position Orientation Groundspeed Altitude Reporting Facility
EDT Latitude Longitude Course Direction KTS MPH feet Rate Location/Type
Sun 03:10:48 PM 36.8847 -76.2150 211° Southwest 73 84 400  Level Washington Center
Sun 03:11:25 PM 36.8742 -76.2228 211° Southwest 83 96 800 619 Climbing Washington Center
Sun 03:12:25 PM 36.8572 -76.2461 228° Southwest 93 107 1,400 738 Climbing Washington Center
Sun 03:13:27 PM 36.8592 -76.2772 274° West 96 110 2,300 780 Climbing Washington Center
Sun 03:14:28 PM 36.8592 -76.3083 270° West 93 107 3,000 694 Climbing Washington Center
Sun 03:15:28 PM 36.8589 -76.3394 269° West 92 106 3,700 694 Climbing Washington Center
Sun 03:16:29 PM 36.8608 -76.3733 274° West 90 104 4,400 672 Climbing Washington Center
Sun 03:17:24 PM 36.8628 -76.4019 275° West 87 100 5,000 574 Climbing Washington Center
Sun 03:18:24 PM 36.8625 -76.4331 269° West 92 106 5,500 545 Climbing Washington Center
Sun 03:19:25 PM 36.8789 -76.4617 306° West 107 123 6,100 541 Climbing Washington Center
Sun 03:20:26 PM 36.8975 -76.4878 312° West 105 121 6,600 496 Climbing Washington Center
Sun 03:21:26 PM 36.9161 -76.5142 311° West 107 123 7,100 446 Climbing Washington Center
Sun 03:22:27 PM 36.9367 -76.5431 312° West 105 121 7,500 446 Climbing Washington Center
Sun 03:23:27 PM 36.9572 -76.5744 309° West 107 123 8,000 157 Climbing Washington Center
Sun 03:25:38 PM 37.0167 -76.6500 315° West 147 169 8,000  Level Potomac TRACON
Sun 03:26:38 PM 37.0333 -76.6833 302° West 143 165 8,000  Level Potomac TRACON
Sun 03:27:38 PM 37.0667 -76.7333 310° West 148 170 8,000  Level Potomac TRACON
Sun 03:28:38 PM 37.1000 -76.7667 321° Northwest 147 169 8,000  Level Potomac TRACON
Sun 03:29:44 PM 37.1167 -76.8000 302° West 145 167 8,000  Level Potomac TRACON
Sun 03:30:45 PM 37.1500 -76.8500 310° West 142 163 8,000  Level Potomac TRACON
Sun 03:31:45 PM 37.1667 -76.8833 302° West 143 165 8,000  Level Potomac TRACON
Sun 03:32:45 PM 37.1833 -76.9333 293° West 144 166 8,000  Level Potomac TRACON
Sun 03:33:46 PM 37.2000 -76.9667 302° West 150 173 8,000  Level Potomac TRACON
Sun 03:34:46 PM 37.2333 -77.0167 310° West 152 175 8,000  Level Potomac TRACON
Sun 03:35:46 PM 37.2500 -77.0500 302° West 145 167 8,000  Level Potomac TRACON
Sun 03:36:46 PM 37.2667 -77.1000 293° West 150 173 8,000  Level Potomac TRACON
Sun 03:37:47 PM 37.3000 -77.1333 322° Northwest 143 165 8,000  Level Potomac TRACON
Sun 03:38:47 PM 37.3167 -77.1833 293° West 143 165 8,000  Level Potomac TRACON
Sun 03:39:47 PM 37.3333 -77.2333 293° West 144 166 8,000  Level Potomac TRACON
Sun 03:40:47 PM 37.3667 -77.2667 322° Northwest 145 167 8,000  Level Potomac TRACON
Sun 03:41:47 PM 37.3833 -77.3167 293° West 145 167 8,000  Level Potomac TRACON
Sun 03:42:48 PM 37.4000 -77.3500 302° West 145 167 8,000  Level Potomac TRACON
Sun 03:43:48 PM 37.4167 -77.4000 293° West 148 170 8,000  Level Potomac TRACON
Sun 03:44:42 PM 37.4500 -77.4333 322° Northwest 147 169 8,000  Level Potomac TRACON
Sun 03:45:42 PM 37.4667 -77.4667 302° West 142 163 8,000  Level Potomac TRACON
Sun 03:46:42 PM 37.4833 -77.5167 293° West 141 162 8,000  Level Potomac TRACON
Sun 03:47:42 PM 37.5000 -77.5500 302° West 142 163 8,000  Level Potomac TRACON
Sun 03:48:42 PM 37.5333 -77.6000 310° West 140 161 8,000  Level Potomac TRACON
Sun 03:49:42 PM 37.5500 -77.6333 302° West 139 160 8,000  Level Potomac TRACON
Sun 03:50:37 PM 37.5667 -77.6833 293° West 139 160 8,000  Level Potomac TRACON
Sun 03:51:37 PM 37.5833 -77.7167 302° West 143 165 8,000  Level Potomac TRACON
Sun 03:52:37 PM 37.6000 -77.7667 293° West 142 163 8,000  Level Potomac TRACON
Sun 03:53:38 PM 37.6333 -77.8000 322° Northwest 132 152 8,000  Level Potomac TRACON
Sun 03:54:38 PM 37.6500 -77.8500 293° West 143 165 8,000  Level Potomac TRACON
Sun 03:55:38 PM 37.6667 -77.8833 302° West 139 160 8,000  Level Potomac TRACON
Sun 03:56:39 PM 37.6833 -77.9167 302° West 141 162 8,000  Level Potomac TRACON
Sun 03:57:39 PM 37.7167 -77.9667 310° West 149 171 8,000  Level Potomac TRACON
Sun 03:58:39 PM 37.7333 -78.0000 302° West 144 166 8,000  Level Potomac TRACON
Sun 03:59:39 PM 37.7500 -78.0500 293° West 149 171 8,000  Level Potomac TRACON
Sun 04:00:39 PM 37.7667 -78.1000 293° West 145 167 8,000  Level Potomac TRACON
Sun 04:01:39 PM 37.8000 -78.1333 322° Northwest 138 159 8,000  Level Potomac TRACON
Sun 04:02:39 PM 37.8167 -78.1833 293° West 144 166 8,000  Level Potomac TRACON
Sun 04:03:39 PM 37.8333 -78.2167 302° West 145 167 8,000  Level Potomac TRACON
Sun 04:04:40 PM 37.8500 -78.2667 293° West 142 163 8,000  Level Potomac TRACON
Sun 04:05:40 PM 37.8833 -78.3000 322° Northwest 143 165 8,000  Level Potomac TRACON
Sun 04:06:35 PM 37.9000 -78.3333 302° West 136 157 8,000  Level Potomac TRACON
Sun 04:07:35 PM 37.9167 -78.3833 293° West 149 171 8,000  Level Potomac TRACON
Sun 04:08:36 PM 37.9333 -78.4167 302° West 139 160 8,000  Level Potomac TRACON
Sun 04:09:36 PM 37.9667 -78.4667 310° West 138 159 8,000  Level Potomac TRACON
Sun 04:10:36 PM 37.9833 -78.5000 302° West 139 160 8,000  Level Potomac TRACON
Sun 04:11:37 PM 38.0000 -78.5500 293° West 140 161 8,000  Level Potomac TRACON
Sun 04:12:37 PM 38.0167 -78.5833 302° West 139 160 8,000  Level Potomac TRACON
Sun 04:13:37 PM 38.0500 -78.6333 310° West 146 168 8,000  Level Potomac TRACON
Sun 04:14:37 PM 38.0667 -78.6667 302° West 140 161 8,000  Level Potomac TRACON
Sun 04:15:43 PM 38.0833 -78.7167 293° West 143 165 8,000  Level Potomac TRACON
Sun 04:16:43 PM 38.1000 -78.7667 293° West 142 163 8,000  Level Potomac TRACON
Sun 04:17:38 PM 38.1167 -78.8000 302° West 141 162 8,000  Level Potomac TRACON
Sun 04:18:38 PM 38.1500 -78.8333 322° Northwest 140 161 8,000  Level Potomac TRACON
Sun 04:19:38 PM 38.1667 -78.8833 293° West 141 162 8,000  Level Potomac TRACON
Sun 04:21:04 PM 38.1953 -78.9444 301° West 151 174 8,000  Level Washington Center
Sun 04:22:02 PM 38.2131 -78.9822 301° West 145 167 8,000  Level Washington Center
Sun 04:23:03 PM 38.2347 -79.0231 304° West 145 167 8,000  Level Washington Center
Sun 04:24:04 PM 38.2542 -79.0689 298° West 145 167 8,000  Level Washington Center
Sun 04:25:05 PM 38.2781 -79.1122 305° West 145 167 8,000  Level Washington Center
Sun 04:26:02 PM 38.2975 -79.1556 300° West 145 167 8,000  Level Washington Center
Sun 04:27:04 PM 38.3192 -79.1989 303° West 145 167 8,000  Level Washington Center
Sun 04:28:04 PM 38.3389 -79.2394 302° West 145 167 8,000  Level Washington Center
Sun 04:29:04 PM 38.3564 -79.2775 300° West 145 167 8,000  Level Washington Center
Sun 04:30:02 PM 38.3761 -79.3208 300° West 145 167 8,000  Level Washington Center
Sun 04:31:03 PM 38.3956 -79.3642 300° West 145 167 8,000  Level Washington Center
Sun 04:32:04 PM 38.4211 -79.4106 305° West 145 167 8,000  Level Washington Center
Sun 04:33:02 PM 38.4406 -79.4539 300° West 145 167 8,000  Level Washington Center
Sun 04:34:03 PM 38.4600 -79.4975 300° West 145 167 8,000  Level Washington Center
Sun 04:35:04 PM 38.4817 -79.5411 302° West 145 167 8,000 101 Level Washington Center
Sun 04:36:02 PM 38.5011 -79.5844 300° West 145 167 8,200  Climbing Washington Center
Sun 04:37:02 PM 38.5225 -79.6281 302° West 150 173 8,000 -98 Descending Washington Center
Sun 04:38:04 PM 38.5419 -79.6717 300° West 150 173 8,000  Level Washington Center
Sun 04:39:51 PM 38.5808 -79.7508 302° West 144 166 8,000  Level Indianapolis Center
Sun 04:40:53 PM 38.6017 -79.7950 301° West 144 166 8,000  Level Indianapolis Center
Sun 04:41:55 PM 38.6242 -79.8425 301° West 152 175 8,000  Level Indianapolis Center
Sun 04:42:57 PM 38.6464 -79.8886 302° West 153 176 8,000  Level Indianapolis Center
Sun 04:43:59 PM 38.6678 -79.9342 301° West 151 174 8,000  Level Indianapolis Center
Sun 04:45:01 PM 38.6886 -79.9803 300° West 150 173 8,000  Level Indianapolis Center
Sun 04:46:03 PM 38.7156 -80.0344 303° West 151 174 8,000  Level Indianapolis Center
Sun 04:47:05 PM 38.7369 -80.0803 301° West 151 174 8,000  Level Indianapolis Center
Sun 04:48:07 PM 38.7575 -80.1247 301° West 146 168 8,000  Level Indianapolis Center
Sun 04:49:09 PM 38.7783 -80.1697 301° West 147 169 8,000  Level Indianapolis Center
Sun 04:50:11 PM 38.8003 -80.2150 302° West 149 171 8,000  Level Indianapolis Center
Sun 04:51:13 PM 38.8214 -80.2606 301° West 150 173 8,000  Level Indianapolis Center
Sun 04:52:15 PM 38.8478 -80.3161 301° West 153 176 8,000  Level Indianapolis Center
Sun 04:53:17 PM 38.8697 -80.3631 301° West 153 176 8,000  Level Indianapolis Center
Sun 04:54:19 PM 38.8897 -80.4094 299° West 150 173 8,000  Level Indianapolis Center
Sun 04:55:20 PM 38.9119 -80.4536 303° West 148 170 8,000  Level Indianapolis Center
Sun 04:56:22 PM 38.9336 -80.5011 300° West 152 175 8,000  Level Indianapolis Center
Sun 04:57:24 PM 38.9553 -80.5475 301° West 151 174 8,000  Level Indianapolis Center
Sun 04:58:26 PM 38.9761 -80.5936 300° West 150 173 8,000  Level Indianapolis Center
Sun 04:59:28 PM 39.0014 -80.6469 301° West 148 170 8,000  Level Indianapolis Center
Sun 05:00:30 PM 39.0233 -80.6950 300° West 153 176 8,000  Level Indianapolis Center
Sun 05:01:32 PM 39.0453 -80.7417 301° West 152 175 8,000  Level Indianapolis Center
Sun 05:02:34 PM 39.0672 -80.7878 302° West 152 175 8,000  Level Indianapolis Center
Sun 05:03:35 PM 39.0892 -80.8350 301° West 152 175 8,000  Level Indianapolis Center
Sun 05:04:37 PM 39.1111 -80.8825 301° West 154 177 8,000  Level Indianapolis Center
Sun 05:05:39 PM 39.1367 -80.9386 300° West 153 176 8,000  Level Indianapolis Center
Sun 05:06:41 PM 39.1567 -80.9844 299° West 151 174 8,000  Level Indianapolis Center
Sun 05:07:43 PM 39.1775 -81.0297 301° West 149 171 8,000  Level Indianapolis Center
Sun 05:08:45 PM 39.1981 -81.0747 301° West 148 170 8,000  Level Indianapolis Center
Sun 05:09:47 PM 39.2183 -81.1181 301° West 145 167 8,000  Level Indianapolis Center
Sun 05:10:48 PM 39.2397 -81.1642 301° West 146 168 8,000  Level Indianapolis Center
Sun 05:11:50 PM 39.2597 -81.2108 299° West 148 170 8,000  Level Indianapolis Center
Sun 05:12:52 PM 39.2856 -81.2658 301° West 149 171 8,000  Level Indianapolis Center
Sun 05:13:54 PM 39.3058 -81.3111 300° West 148 170 8,000  Level Indianapolis Center
Sun 05:14:56 PM 39.3261 -81.3581 299° West 149 171 8,000  Level Indianapolis Center
Sun 05:15:57 PM 39.3475 -81.4033 301° West 149 171 8,000  Level Indianapolis Center
Sun 05:16:59 PM 39.3628 -81.4517 292° West 146 168 8,000  Level Indianapolis Center
Sun 05:18:01 PM 39.3756 -81.5008 289° West 145 167 8,000  Level Indianapolis Center
Sun 05:19:03 PM 39.3897 -81.5506 290° West 147 169 8,000  Level Indianapolis Center
Sun 05:20:04 PM 39.4050 -81.6094 289° West 145 167 8,000  Level Indianapolis Center
Sun 05:21:06 PM 39.4239 -81.6525 300° West 141 162 8,000  Level Indianapolis Center
Sun 05:22:08 PM 39.4433 -81.6972 299° West 143 165 8,000  Level Indianapolis Center
Sun 05:23:10 PM 39.4644 -81.7408 302° West 143 165 8,000  Level Indianapolis Center
Sun 05:24:12 PM 39.4853 -81.7842 302° West 142 163 8,000  Level Indianapolis Center
Sun 05:25:13 PM 39.5061 -81.8294 301° West 145 167 8,000  Level Indianapolis Center
Sun 05:26:15 PM 39.5264 -81.8744 300° West 145 167 8,000  Level Indianapolis Center
Sun 05:27:17 PM 39.5519 -81.9258 303° West 142 163 8,000  Level Indianapolis Center
Sun 05:28:19 PM 39.5728 -81.9711 301° West 147 169 8,000  Level Indianapolis Center
Sun 05:29:21 PM 39.5939 -82.0144 302° West 143 165 8,000 49 Level Indianapolis Center
Sun 05:30:22 PM 39.6150 -82.0594 301° West 144 166 8,100 49 Climbing Indianapolis Center
Sun 05:31:24 PM 39.6361 -82.1039 302° West 145 167 8,100 -97 Level Indianapolis Center
Sun 05:32:26 PM 39.6589 -82.1539 301° West 147 169 7,900 -97 Descending Indianapolis Center
Sun 05:33:28 PM 39.6797 -82.2006 300° West 148 170 7,900 48 Level Indianapolis Center
Sun 05:34:30 PM 39.7039 -82.2533 301° West 147 169 8,000  Climbing Indianapolis Center
Sun 05:35:31 PM 39.7222 -82.2919 302° West 149 171 7,900  Descending Indianapolis Center
Sun 05:36:25 PM 39.7425 -82.3386 299° West 144 166 8,000  Climbing Indianapolis Center
Sun 05:37:35 PM 39.7675 -82.3892 303° West 145 167 7,900  Descending Indianapolis Center
Sun 05:38:20 PM 39.7811 -82.4239 297° West 144 166 8,000 57 Climbing Indianapolis Center
Sun 05:39:21 PM 39.8033 -82.4697 302° West 147 169 8,000 -310 Level Indianapolis Center
Sun 05:40:16 PM 39.8233 -82.5153 300° West 159 183 7,400 -694 Descending Indianapolis Center
Sun 05:41:22 PM 39.8600 -82.5653 314° West 178 205 6,600 -722 Descending Indianapolis Center
Sun 05:42:29 PM 39.8986 -82.6158 315° West 172 198 5,800 -689 Descending Indianapolis Center
Sun 05:43:24 PM 39.9294 -82.6572 314° West 176 203 5,200 -739 Descending Indianapolis Center
Sun 05:44:47 PM 39.9739 -82.7119 317° Northwest 178 205 4,100 -820 Descending Indianapolis Center
Sun 05:45:43 PM 40.0103 -82.7614 314° West 174 200 3,300 -564 Descending Indianapolis Center
Sun 05:46:44 PM 40.0414 -82.8003 316° Northwest 158 182 3,000 -148 Descending Indianapolis Center
Sun 05:47:45 PM 40.0678 -82.8414 310° West 145 167 3,000  Level Indianapolis Center
Sun 05:48:33 PM 40.0839 -82.8814 298° West 142 163 3,000 -110 Level Indianapolis Center
Sun 05:49:34 PM 40.0828 -82.9303 268° West 138 159 2,800 -492 Descending Indianapolis Center
Sun 05:50:35 PM 40.0811 -82.9872 268° West 163 188 2,000 -689 Descending Indianapolis Center
Sun 05:51:36 PM 40.0778 -83.0333 265° West 100 115 1,400 -370 Descending Indianapolis Center
Sun 05:53:01 PM 40.0764 -83.0694 267° West 106 122 1,100 -212 Descending Indianapolis Center

Login

Don't have an account? Register now (free) for customized features, flight alerts, and more!